createdAt,value
2019-01-24T00:05:05.670Z,17.20
2019-01-24T00:10:11.346Z,18.63
2019-01-24T00:15:16.815Z,16.77
2019-01-24T00:20:23.270Z,19.20
2019-01-24T00:25:28.698Z,17.67
2019-01-24T00:30:34.461Z,17.27
2019-01-24T00:35:40.667Z,18.97
2019-01-24T00:40:46.449Z,17.57
2019-01-24T00:45:52.268Z,18.83
2019-01-24T00:50:57.678Z,16.63
2019-01-24T00:56:03.796Z,19.47
2019-01-24T01:01:09.582Z,14.17
2019-01-24T01:06:15.127Z,18.67
2019-01-24T01:11:20.908Z,19.07
2019-01-24T01:16:26.679Z,18.13
2019-01-24T01:21:32.157Z,17.90
2019-01-24T01:26:38.058Z,19.00
2019-01-24T01:31:43.830Z,19.17
2019-01-24T01:36:49.477Z,17.37
2019-01-24T01:41:54.958Z,19.20
2019-01-24T01:47:00.815Z,17.30
2019-01-24T01:52:06.274Z,19.37
2019-01-24T01:57:11.775Z,17.60
2019-01-24T02:02:17.186Z,17.07
2019-01-24T02:07:22.611Z,19.30
2019-01-24T02:12:28.145Z,18.60
2019-01-24T02:17:33.919Z,20.03
2019-01-24T02:22:40.017Z,18.13
2019-01-24T02:27:45.505Z,19.83
2019-01-24T02:32:51.325Z,18.93
2019-01-24T02:37:57.086Z,18.03
2019-01-24T02:43:03.077Z,20.00
2019-01-24T02:48:08.831Z,20.50
2019-01-24T02:53:14.622Z,19.17
2019-01-24T02:58:20.746Z,20.43
2019-01-24T03:03:26.861Z,20.53
2019-01-24T03:08:32.290Z,20.67
2019-01-24T03:13:37.808Z,19.43
2019-01-24T03:18:43.234Z,21.17
2019-01-24T03:23:48.673Z,19.77
2019-01-24T03:28:54.126Z,20.97
2019-01-24T03:33:59.880Z,21.20
2019-01-24T03:39:08.819Z,20.60
2019-01-24T03:44:14.240Z,19.00
2019-01-24T03:49:20.337Z,20.17
2019-01-24T03:54:26.129Z,20.97
2019-01-24T03:59:32.114Z,20.43
2019-01-24T04:04:37.606Z,18.47
2019-01-24T04:09:43.016Z,21.03
2019-01-24T04:14:48.434Z,17.60
2019-01-24T04:19:54.004Z,19.67
2019-01-24T04:24:59.518Z,19.17
2019-01-24T04:30:06.190Z,20.80
2019-01-24T04:35:11.778Z,21.20
2019-01-24T04:40:18.351Z,19.03
2019-01-24T04:45:24.140Z,18.43
2019-01-24T04:50:29.924Z,17.87
2019-01-24T04:55:36.046Z,17.97
2019-01-24T05:00:41.890Z,16.50
2019-01-24T05:05:47.309Z,16.77
2019-01-24T05:10:52.752Z,16.23
2019-01-24T05:15:58.187Z,16.63
2019-01-24T05:21:03.658Z,15.80
2019-01-24T05:26:09.082Z,16.63
2019-01-24T05:31:14.860Z,16.33
2019-01-24T05:36:20.360Z,16.93
2019-01-24T05:41:25.788Z,14.50
2019-01-24T05:46:31.235Z,14.83
2019-01-24T05:51:37.126Z,14.77
2019-01-24T05:56:42.556Z,15.30
2019-01-24T06:01:48.328Z,14.47
2019-01-24T06:06:53.783Z,14.07
2019-01-24T06:11:59.622Z,15.43
2019-01-24T06:17:05.395Z,14.63
2019-01-24T06:22:10.843Z,14.90
2019-01-24T06:27:16.326Z,15.10
2019-01-24T06:32:21.762Z,15.67
2019-01-24T06:37:27.560Z,13.27
2019-01-24T06:42:33.002Z,17.00
2019-01-24T06:47:38.852Z,13.53
2019-01-24T06:52:44.281Z,14.43
2019-01-24T06:57:49.723Z,14.47
2019-01-24T07:02:55.885Z,14.23
2019-01-24T07:08:01.649Z,13.57
2019-01-24T07:13:07.424Z,15.00
2019-01-24T07:18:12.940Z,14.47
2019-01-24T07:23:18.371Z,15.33
2019-01-24T07:28:24.140Z,15.80
2019-01-24T07:33:29.690Z,15.73
2019-01-24T07:38:35.171Z,14.67
2019-01-24T07:43:40.589Z,14.47
2019-01-24T07:48:46.784Z,15.43
2019-01-24T07:53:52.634Z,14.40
2019-01-24T07:58:58.407Z,14.03
2019-01-24T08:04:03.845Z,15.50
2019-01-24T08:09:09.662Z,15.00
2019-01-24T08:14:15.083Z,15.17
2019-01-24T08:19:20.527Z,16.70
2019-01-24T08:24:26.313Z,14.53
2019-01-24T08:29:31.750Z,14.23
2019-01-24T08:34:37.198Z,14.30
2019-01-24T08:39:43.036Z,15.60
2019-01-24T08:44:48.458Z,15.60
2019-01-24T08:49:53.892Z,15.93
2019-01-24T08:55:00.013Z,16.73
2019-01-24T09:00:07.070Z,14.87
2019-01-24T09:05:12.559Z,17.43
2019-01-24T09:10:22.651Z,17.80
2019-01-24T09:15:29.257Z,18.90
2019-01-24T09:20:34.522Z,15.50
2019-01-24T09:25:39.941Z,19.93
2019-01-24T09:30:45.422Z,20.47
2019-01-24T09:35:51.194Z,18.13
2019-01-24T09:40:56.662Z,21.00
2019-01-24T09:46:02.514Z,20.30
2019-01-24T09:51:07.999Z,21.20
2019-01-24T09:56:13.774Z,22.00
2019-01-24T10:01:19.211Z,22.87
2019-01-24T10:06:24.698Z,21.87
2019-01-24T10:11:30.134Z,22.43
2019-01-24T10:16:35.963Z,20.60
2019-01-24T10:21:41.530Z,22.47
2019-01-24T10:26:47.372Z,20.13
2019-01-24T10:31:52.867Z,21.57
2019-01-24T10:36:58.358Z,24.23
2019-01-24T10:42:03.798Z,22.77
2019-01-24T10:47:09.230Z,22.50
2019-01-24T10:52:14.672Z,22.93
2019-01-24T10:57:20.931Z,23.40
2019-01-24T11:02:26.698Z,20.53
2019-01-24T11:07:32.122Z,21.87
2019-01-24T11:12:37.599Z,22.07
2019-01-24T11:17:43.007Z,23.40
2019-01-24T11:22:48.672Z,23.17
2019-01-24T11:27:54.787Z,22.63
2019-01-24T11:33:00.254Z,20.57
2019-01-24T11:38:07.145Z,22.10
2019-01-24T11:43:11.335Z,23.73
2019-01-24T11:48:18.743Z,22.13
2019-01-24T11:53:24.238Z,19.17
2019-01-24T11:58:30.102Z,20.70
2019-01-24T12:03:35.888Z,19.07
2019-01-24T12:08:41.306Z,19.67
2019-01-24T12:13:46.734Z,19.67
2019-01-24T12:18:52.490Z,15.73
2019-01-24T12:23:57.910Z,17.53
2019-01-24T12:29:03.687Z,17.00
2019-01-24T12:34:09.447Z,17.07
2019-01-24T12:39:14.870Z,16.93
2019-01-24T12:44:21.288Z,17.53
2019-01-24T12:49:25.787Z,17.73
2019-01-24T12:54:31.206Z,18.57
2019-01-24T12:59:36.994Z,17.63
2019-01-24T13:04:42.759Z,18.37
2019-01-24T13:09:48.444Z,19.00
2019-01-24T13:14:54.213Z,17.50
2019-01-24T13:20:00.179Z,18.70
2019-01-24T13:25:08.502Z,19.17
2019-01-24T13:30:20.289Z,17.77
2019-01-24T13:35:25.731Z,18.13
2019-01-24T13:40:32.774Z,18.67
2019-01-24T13:45:39.910Z,18.80
2019-01-24T13:50:46.090Z,17.20
2019-01-24T13:55:52.250Z,16.93
2019-01-24T14:00:57.994Z,17.50
2019-01-24T14:06:03.849Z,21.27
2019-01-24T14:11:09.289Z,21.43
2019-01-24T14:16:15.417Z,20.50
2019-01-24T14:21:21.668Z,17.90
2019-01-24T14:26:27.319Z,20.90
2019-01-24T14:31:33.290Z,20.60
2019-01-24T14:36:39.531Z,21.80
2019-01-24T14:41:45.006Z,22.27
2019-01-24T14:46:50.578Z,20.70
2019-01-24T14:51:56.357Z,20.37
2019-01-24T14:57:02.134Z,21.37
2019-01-24T15:02:07.960Z,22.67
2019-01-24T15:07:13.468Z,22.13
2019-01-24T15:12:19.523Z,39.10
2019-01-24T15:17:25.594Z,39.48
2019-01-24T15:22:31.322Z,27.03
2019-01-24T15:27:37.310Z,25.20
2019-01-24T15:32:43.170Z,24.60
2019-01-24T15:37:54.433Z,23.40
2019-01-24T15:42:54.864Z,23.10
2019-01-24T15:48:00.314Z,23.77
2019-01-24T15:53:06.113Z,24.87
2019-01-24T15:58:11.906Z,23.47
2019-01-24T16:03:17.349Z,24.37
2019-01-24T16:08:23.034Z,24.90
2019-01-24T16:13:28.746Z,25.47
2019-01-24T16:18:34.859Z,23.73
2019-01-24T16:23:40.420Z,23.43
2019-01-24T16:28:46.258Z,24.03
2019-01-24T16:33:51.918Z,23.73
2019-01-24T16:38:57.355Z,22.90
2019-01-24T16:44:02.914Z,19.37
2019-01-24T16:49:09.226Z,19.90
2019-01-24T16:54:15.043Z,19.17
2019-01-24T16:59:20.466Z,20.13
2019-01-24T17:04:26.582Z,22.43
2019-01-24T17:09:32.702Z,19.73
2019-01-24T17:14:38.698Z,19.27
2019-01-24T17:19:44.451Z,19.80
2019-01-24T17:24:50.341Z,19.33
2019-01-24T17:29:55.806Z,20.47
2019-01-24T17:35:01.259Z,19.90
2019-01-24T17:40:10.621Z,20.60
2019-01-24T17:45:16.391Z,22.77
2019-01-24T17:50:21.814Z,21.20
2019-01-24T17:55:32.481Z,19.43
2019-01-24T18:00:39.011Z,19.40
2019-01-24T18:05:44.615Z,21.23
2019-01-24T18:10:50.382Z,19.50
2019-01-24T18:15:55.927Z,20.47
2019-01-24T18:21:01.715Z,20.07
2019-01-24T18:26:07.573Z,18.67
2019-01-24T18:31:13.353Z,19.77
2019-01-24T18:36:19.214Z,21.17
2019-01-24T18:41:24.738Z,20.40
2019-01-24T18:46:30.567Z,20.13
2019-01-24T18:51:36.795Z,20.70
2019-01-24T18:56:42.958Z,20.03
2019-01-24T19:01:48.794Z,20.73
2019-01-24T19:06:54.305Z,22.70
2019-01-24T19:11:59.799Z,22.30
2019-01-24T19:17:05.319Z,22.57
2019-01-24T19:22:11.534Z,22.53
2019-01-24T19:27:17.758Z,22.73
2019-01-24T19:32:23.598Z,20.73
2019-01-24T19:37:29.110Z,23.50
2019-01-24T19:42:34.879Z,20.47
2019-01-24T19:47:40.431Z,22.23
2019-01-24T19:52:45.854Z,21.40
2019-01-24T19:57:51.652Z,21.57
2019-01-24T20:02:57.695Z,22.50
2019-01-24T20:08:03.442Z,20.57
2019-01-24T20:13:08.923Z,20.97
2019-01-24T20:18:14.342Z,20.57
2019-01-24T20:23:20.195Z,22.57
2019-01-24T20:28:25.607Z,21.13
2019-01-24T20:33:31.022Z,20.20
2019-01-24T20:38:36.611Z,20.60
2019-01-24T20:43:42.373Z,19.87
2019-01-24T20:48:47.802Z,21.17
2019-01-24T20:53:53.909Z,20.27
2019-01-24T20:58:59.401Z,18.53
2019-01-24T21:04:05.200Z,20.80
2019-01-24T21:09:14.657Z,20.60
2019-01-24T21:14:16.276Z,20.23
2019-01-24T21:19:21.691Z,19.67
2019-01-24T21:24:27.102Z,20.97
2019-01-24T21:29:32.519Z,19.37
2019-01-24T21:34:37.991Z,20.17
2019-01-24T21:39:43.407Z,19.90
2019-01-24T21:44:49.174Z,18.97
2019-01-24T21:49:54.586Z,19.03
2019-01-24T21:55:00.342Z,18.80
2019-01-24T22:00:06.819Z,18.90
2019-01-24T22:05:12.397Z,19.20
2019-01-24T22:10:20.859Z,18.73
2019-01-24T22:15:28.702Z,21.50
2019-01-24T22:20:34.162Z,18.83
2019-01-24T22:25:39.593Z,21.57
2019-01-24T22:30:50.281Z,20.63
2019-01-24T22:35:55.694Z,20.57
2019-01-24T22:41:01.483Z,19.87
2019-01-24T22:46:07.246Z,19.67
2019-01-24T22:51:13.002Z,20.03
2019-01-24T22:56:19.145Z,21.73
2019-01-24T23:01:37.662Z,19.90
2019-01-24T23:06:43.410Z,20.37
2019-01-24T23:11:48.852Z,21.17
2019-01-24T23:16:54.974Z,21.20
2019-01-24T23:22:00.426Z,20.67
2019-01-24T23:27:05.897Z,20.83
2019-01-24T23:32:11.644Z,20.77
2019-01-24T23:37:17.422Z,21.47
2019-01-24T23:42:23.194Z,22.93
2019-01-24T23:47:29.006Z,20.03
2019-01-24T23:52:34.810Z,20.23
2019-01-24T23:57:40.050Z,20.73
